createdAt,value
2023-05-21T00:00:12.077Z,2.30
2023-05-21T00:02:43.000Z,3.17
2023-05-21T00:05:15.013Z,2.50
2023-05-21T00:07:44.129Z,2.40
2023-05-21T00:10:12.792Z,2.03
2023-05-21T00:12:42.047Z,2.47
2023-05-21T00:15:11.063Z,2.50
2023-05-21T00:17:40.173Z,2.50
2023-05-21T00:20:11.985Z,2.70
2023-05-21T00:22:42.416Z,2.13
2023-05-21T00:25:11.705Z,2.70
2023-05-21T00:27:40.360Z,2.43
2023-05-21T00:30:09.347Z,2.30
2023-05-21T00:32:38.116Z,2.37
2023-05-21T00:35:07.345Z,2.27
2023-05-21T00:37:38.184Z,2.37
2023-05-21T00:40:08.235Z,2.33
2023-05-21T00:42:40.026Z,2.40
2023-05-21T00:45:09.392Z,2.37
2023-05-21T00:47:39.306Z,2.33
2023-05-21T00:50:08.446Z,2.33
2023-05-21T00:52:42.176Z,2.20
2023-05-21T00:55:11.868Z,2.80
2023-05-21T00:57:41.717Z,2.47
2023-05-21T01:00:11.020Z,2.27
2023-05-21T01:02:39.950Z,2.60
2023-05-21T01:05:08.898Z,2.40
2023-05-21T01:07:40.090Z,2.50
2023-05-21T01:10:09.876Z,2.00
2023-05-21T01:12:39.509Z,2.30
2023-05-21T01:15:08.655Z,2.27
2023-05-21T01:17:37.326Z,2.20
2023-05-21T01:20:10.279Z,2.37
2023-05-21T01:22:44.692Z,2.40
2023-05-21T01:25:15.208Z,2.37
2023-05-21T01:27:43.701Z,2.17
2023-05-21T01:30:12.746Z,2.50
2023-05-21T01:32:44.815Z,2.00
2023-05-21T01:35:16.018Z,2.10
2023-05-21T01:37:47.259Z,2.30
2023-05-21T01:40:19.983Z,2.40
2023-05-21T01:42:49.427Z,2.80
2023-05-21T01:45:18.336Z,2.70
2023-05-21T01:47:47.806Z,2.70
2023-05-21T01:50:17.152Z,2.40
2023-05-21T01:52:51.078Z,2.60
2023-05-21T01:55:24.856Z,2.30
2023-05-21T01:57:54.002Z,2.30
2023-05-21T02:00:23.220Z,2.30
2023-05-21T02:02:52.251Z,2.70
2023-05-21T02:05:20.933Z,2.63
2023-05-21T02:07:49.927Z,2.73
2023-05-21T02:10:18.727Z,2.87
2023-05-21T02:12:48.806Z,2.60
2023-05-21T02:15:18.120Z,2.90
2023-05-21T02:17:47.071Z,3.20
2023-05-21T02:20:15.919Z,2.40
2023-05-21T02:22:46.069Z,2.73
2023-05-21T02:25:15.262Z,2.70
2023-05-21T02:27:44.647Z,2.80
2023-05-21T02:30:15.797Z,2.40
2023-05-21T02:32:45.177Z,2.63
2023-05-21T02:35:14.485Z,2.60
2023-05-21T02:37:46.070Z,2.50
2023-05-21T02:40:14.791Z,2.70
2023-05-21T02:42:43.288Z,2.50
2023-05-21T02:45:12.994Z,2.47
2023-05-21T02:47:43.187Z,2.60
2023-05-21T02:50:11.981Z,2.57
2023-05-21T02:52:41.722Z,2.30
2023-05-21T02:55:10.696Z,2.60
2023-05-21T02:57:39.206Z,2.77
2023-05-21T03:00:09.421Z,2.57
2023-05-21T03:02:38.042Z,2.57
2023-05-21T03:05:08.838Z,2.87
2023-05-21T03:07:37.620Z,2.50
2023-05-21T03:10:06.615Z,2.53
2023-05-21T03:12:35.209Z,2.70
2023-05-21T03:15:05.119Z,2.40
2023-05-21T03:17:33.814Z,2.40
2023-05-21T03:20:02.365Z,2.30
2023-05-21T03:22:32.589Z,2.70
2023-05-21T03:25:01.900Z,4.40
2023-05-21T03:27:30.583Z,2.70
2023-05-21T03:30:01.554Z,2.67
2023-05-21T03:32:30.198Z,3.03
2023-05-21T03:34:58.704Z,2.90
2023-05-21T03:37:27.380Z,2.60
2023-05-21T03:39:57.380Z,3.10
2023-05-21T03:42:25.877Z,2.87
2023-05-21T03:44:54.494Z,2.47
2023-05-21T03:47:23.137Z,2.80
2023-05-21T03:49:51.807Z,2.80
2023-05-21T03:52:20.483Z,2.67
2023-05-21T03:54:49.083Z,2.73
2023-05-21T03:57:18.984Z,2.80
2023-05-21T03:59:47.572Z,2.73
2023-05-21T04:02:16.196Z,2.67
2023-05-21T04:04:45.642Z,2.67
2023-05-21T04:07:15.651Z,2.40
2023-05-21T04:09:44.361Z,2.80
2023-05-21T04:12:12.901Z,2.40
2023-05-21T04:14:43.158Z,2.63
2023-05-21T04:17:12.833Z,2.53
2023-05-21T04:19:42.152Z,2.47
2023-05-21T04:22:12.169Z,2.37
2023-05-21T04:24:40.797Z,2.63
2023-05-21T04:27:10.091Z,2.37
2023-05-21T04:29:42.938Z,2.20
2023-05-21T04:32:15.305Z,2.63
2023-05-21T04:34:44.146Z,2.30
2023-05-21T04:37:12.801Z,2.20
2023-05-21T04:39:41.331Z,2.63
2023-05-21T04:42:11.148Z,2.50
2023-05-21T04:44:40.447Z,2.83
2023-05-21T04:47:09.055Z,2.40
2023-05-21T04:49:39.163Z,2.57
2023-05-21T04:52:08.376Z,2.77
2023-05-21T04:54:39.020Z,2.47
2023-05-21T04:57:08.480Z,2.50
2023-05-21T04:59:37.760Z,2.37
2023-05-21T05:02:06.335Z,2.40
2023-05-21T05:04:34.965Z,2.07
2023-05-21T05:07:04.967Z,2.70
2023-05-21T05:09:33.469Z,2.13
2023-05-21T05:12:02.143Z,2.23
2023-05-21T05:14:30.776Z,2.40
2023-05-21T05:17:00.781Z,2.10
2023-05-21T05:19:29.874Z,2.00
2023-05-21T05:21:58.670Z,2.00
2023-05-21T05:24:28.692Z,2.20
2023-05-21T05:26:57.311Z,2.03
2023-05-21T05:29:25.960Z,2.23
2023-05-21T05:31:54.483Z,2.20
2023-05-21T05:34:23.098Z,2.30
2023-05-21T05:36:51.700Z,1.93
2023-05-21T05:39:20.275Z,2.00
2023-05-21T05:41:50.421Z,2.07
2023-05-21T05:44:18.909Z,2.10
2023-05-21T05:46:47.538Z,2.30
2023-05-21T05:49:16.339Z,2.23
2023-05-21T05:51:44.888Z,1.97
2023-05-21T05:54:13.406Z,2.10
2023-05-21T05:56:42.136Z,1.77
2023-05-21T05:59:12.147Z,1.70
2023-05-21T06:01:42.699Z,2.00
2023-05-21T06:04:11.288Z,1.90
2023-05-21T06:06:39.990Z,1.70
2023-05-21T06:09:08.668Z,1.67
2023-05-21T06:11:37.187Z,1.63
2023-05-21T06:14:05.812Z,1.73
2023-05-21T06:16:37.470Z,1.60
2023-05-21T06:19:06.071Z,1.50
2023-05-21T06:21:34.728Z,1.53
2023-05-21T06:24:03.365Z,1.80
2023-05-21T06:26:31.929Z,1.97
2023-05-21T06:29:00.685Z,1.57
2023-05-21T06:31:29.290Z,1.80
2023-05-21T06:33:59.394Z,1.73
2023-05-21T06:36:30.130Z,1.50
2023-05-21T06:38:59.020Z,1.50
2023-05-21T06:41:27.572Z,1.40
2023-05-21T06:43:56.860Z,1.50
2023-05-21T06:46:25.627Z,1.80
2023-05-21T06:48:54.192Z,1.50
2023-05-21T06:51:24.234Z,1.43
2023-05-21T06:53:53.166Z,1.67
2023-05-21T06:56:22.071Z,1.80
2023-05-21T06:58:50.758Z,1.60
2023-05-21T07:01:19.423Z,1.60
2023-05-21T07:03:48.006Z,1.50
2023-05-21T07:06:16.943Z,1.43
2023-05-21T07:08:48.201Z,1.43
2023-05-21T07:11:16.785Z,1.70
2023-05-21T07:13:45.475Z,1.37
2023-05-21T07:16:14.058Z,1.60
2023-05-21T07:18:42.582Z,1.77
2023-05-21T07:21:11.163Z,1.90
2023-05-21T07:23:39.884Z,1.50
2023-05-21T07:26:10.675Z,1.70
2023-05-21T07:28:39.368Z,1.70
2023-05-21T07:31:08.562Z,1.90
2023-05-21T07:33:37.126Z,1.80
2023-05-21T07:36:05.848Z,1.50
2023-05-21T07:38:34.648Z,1.53
2023-05-21T07:41:03.165Z,1.50
2023-05-21T07:43:35.757Z,1.73
2023-05-21T07:46:04.384Z,1.60
2023-05-21T07:48:35.289Z,1.70
2023-05-21T07:51:04.181Z,2.37
2023-05-21T07:53:33.411Z,1.60
2023-05-21T07:56:01.991Z,1.50
2023-05-21T07:58:31.163Z,1.60
2023-05-21T08:01:01.132Z,1.80
2023-05-21T08:03:30.926Z,1.60
2023-05-21T08:05:59.724Z,1.50
2023-05-21T08:08:28.359Z,1.50
2023-05-21T08:10:57.150Z,1.80
2023-05-21T08:13:25.998Z,1.90
2023-05-21T08:15:54.772Z,1.70
2023-05-21T08:18:25.508Z,1.70
2023-05-21T08:20:54.456Z,1.93
2023-05-21T08:23:23.024Z,1.63
2023-05-21T08:25:53.345Z,1.90
2023-05-21T08:28:24.246Z,1.70
2023-05-21T08:30:52.897Z,1.90
2023-05-21T08:33:21.614Z,1.70
2023-05-21T08:35:51.746Z,1.80
2023-05-21T08:38:20.270Z,1.80
2023-05-21T08:40:49.092Z,1.70
2023-05-21T08:43:18.178Z,1.90
2023-05-21T08:45:47.637Z,1.70
2023-05-21T08:48:18.239Z,1.80
2023-05-21T08:50:47.263Z,1.70
2023-05-21T08:53:27.332Z,1.50
2023-05-21T08:55:57.578Z,1.60
2023-05-21T08:58:26.452Z,1.70
2023-05-21T09:00:56.334Z,1.83
2023-05-21T09:03:26.073Z,1.60
2023-05-21T09:05:55.564Z,1.40
2023-05-21T09:08:29.308Z,1.63
2023-05-21T09:10:57.962Z,1.63
2023-05-21T09:13:27.021Z,1.53
2023-05-21T09:15:55.702Z,1.70
2023-05-21T09:18:24.343Z,1.70
2023-05-21T09:20:54.095Z,1.90
2023-05-21T09:23:22.756Z,1.60
2023-05-21T09:25:53.091Z,1.60
2023-05-21T09:28:21.674Z,1.57
2023-05-21T09:30:51.143Z,1.60
2023-05-21T09:33:29.524Z,1.50
2023-05-21T09:35:58.822Z,1.43
2023-05-21T09:38:27.596Z,1.60
2023-05-21T09:40:58.151Z,1.67
2023-05-21T09:43:27.130Z,1.60
2023-05-21T09:45:57.313Z,1.67
2023-05-21T09:48:37.214Z,1.30
2023-05-21T09:51:12.492Z,1.50
2023-05-21T09:53:50.786Z,1.57
2023-05-21T09:56:27.489Z,1.43
2023-05-21T09:58:57.056Z,1.37
2023-05-21T10:01:26.140Z,1.33
2023-05-21T10:03:57.504Z,1.53
2023-05-21T10:06:26.691Z,1.30
2023-05-21T10:08:56.783Z,1.40
2023-05-21T10:11:27.511Z,1.40
2023-05-21T10:13:59.855Z,1.60
2023-05-21T10:16:28.711Z,1.50
2023-05-21T10:18:57.724Z,1.57
2023-05-21T10:21:26.577Z,1.50
2023-05-21T10:23:56.654Z,1.43
2023-05-21T10:26:26.507Z,1.57
2023-05-21T10:28:57.055Z,1.70
2023-05-21T10:31:27.810Z,1.67
2023-05-21T10:33:56.556Z,1.50
2023-05-21T10:36:26.367Z,2.00
2023-05-21T10:38:55.259Z,1.80
2023-05-21T10:41:24.774Z,1.80
2023-05-21T10:43:58.887Z,1.80
2023-05-21T10:46:57.638Z,1.83
2023-05-21T10:49:35.457Z,1.60
2023-05-21T10:52:09.607Z,1.50
2023-05-21T10:54:50.059Z,1.93
2023-05-21T10:57:25.012Z,1.60
2023-05-21T10:59:53.975Z,1.47
2023-05-21T11:02:22.823Z,1.70
2023-05-21T11:04:59.941Z,1.70
2023-05-21T11:07:45.660Z,1.67
2023-05-21T11:10:33.470Z,1.48
2023-05-21T11:13:12.704Z,1.60
2023-05-21T11:15:59.304Z,1.70
2023-05-21T11:18:58.592Z,1.70
2023-05-21T11:21:31.371Z,1.80
2023-05-21T11:24:03.899Z,1.63
2023-05-21T11:26:55.341Z,1.75
2023-05-21T11:29:33.534Z,1.67
2023-05-21T11:32:03.213Z,1.60
2023-05-21T11:34:39.484Z,1.77
2023-05-21T11:37:43.788Z,1.67
2023-05-21T11:40:26.124Z,1.67
2023-05-21T11:42:56.439Z,1.77
2023-05-21T11:45:26.371Z,1.55
2023-05-21T11:47:54.989Z,1.70
2023-05-21T11:50:23.702Z,1.70
2023-05-21T11:52:52.469Z,1.80
2023-05-21T11:55:26.370Z,1.90
2023-05-21T11:57:55.981Z,1.70
2023-05-21T12:00:24.612Z,1.60
2023-05-21T12:02:55.978Z,1.90
2023-05-21T12:05:27.241Z,1.50
2023-05-21T12:07:56.775Z,1.83
2023-05-21T12:10:26.930Z,1.70
2023-05-21T12:12:56.842Z,1.70
2023-05-21T12:15:26.695Z,1.70
2023-05-21T12:17:56.995Z,1.73
2023-05-21T12:20:28.231Z,1.90
2023-05-21T12:22:58.991Z,1.80
2023-05-21T12:25:30.020Z,1.45
2023-05-21T12:27:58.885Z,1.60
2023-05-21T12:30:30.087Z,1.90
2023-05-21T12:33:00.212Z,2.00
2023-05-21T12:35:28.909Z,2.13
2023-05-21T12:37:57.779Z,1.90
2023-05-21T12:40:38.886Z,1.90
2023-05-21T12:43:08.274Z,1.70
2023-05-21T12:45:39.674Z,1.73
2023-05-21T12:48:08.528Z,1.65
2023-05-21T12:50:40.740Z,1.70
2023-05-21T12:53:11.186Z,1.70
2023-05-21T12:55:41.680Z,1.55
2023-05-21T12:58:10.197Z,1.90
2023-05-21T13:00:39.008Z,1.80
2023-05-21T13:03:08.125Z,1.70
2023-05-21T13:05:36.998Z,1.83
2023-05-21T13:08:05.578Z,1.80
2023-05-21T13:10:34.269Z,1.83
2023-05-21T13:13:04.170Z,1.75
2023-05-21T13:15:33.052Z,1.70
2023-05-21T13:18:01.925Z,2.00
2023-05-21T13:20:30.625Z,1.67
2023-05-21T13:22:59.126Z,1.80
2023-05-21T13:25:29.768Z,2.17
2023-05-21T13:27:59.117Z,1.95
2023-05-21T13:30:29.011Z,2.03
2023-05-21T13:32:57.888Z,1.98
2023-05-21T13:35:26.484Z,1.70
2023-05-21T13:37:55.020Z,1.88
2023-05-21T13:40:24.002Z,1.90
2023-05-21T13:42:52.520Z,2.00
2023-05-21T13:45:22.046Z,1.83
2023-05-21T13:47:52.076Z,1.95
2023-05-21T13:50:20.605Z,2.03
2023-05-21T13:52:49.362Z,1.85
2023-05-21T13:55:19.030Z,1.85
2023-05-21T13:57:47.806Z,1.67
2023-05-21T14:00:16.597Z,1.95
2023-05-21T14:02:45.869Z,1.83
2023-05-21T14:05:15.958Z,1.80
2023-05-21T14:07:44.512Z,1.77
2023-05-21T14:10:13.437Z,1.83
2023-05-21T14:12:42.240Z,1.83
2023-05-21T14:15:12.000Z,1.83
2023-05-21T14:17:42.590Z,1.80
2023-05-21T14:20:11.647Z,1.85
2023-05-21T14:22:41.553Z,1.85
2023-05-21T14:25:10.522Z,1.90
2023-05-21T14:27:39.346Z,2.10
2023-05-21T14:30:08.491Z,1.80
2023-05-21T14:32:37.143Z,1.90
2023-05-21T14:35:06.401Z,1.80
2023-05-21T14:37:34.891Z,2.00
2023-05-21T14:40:05.656Z,1.95
2023-05-21T14:42:34.352Z,1.85
2023-05-21T14:45:20.404Z,2.00
2023-05-21T14:47:49.288Z,2.10
2023-05-21T14:50:18.779Z,1.85
2023-05-21T14:52:47.428Z,2.20
2023-05-21T14:55:18.664Z,1.83
2023-05-21T14:57:47.172Z,1.90
2023-05-21T15:00:16.223Z,2.08
2023-05-21T15:02:45.105Z,2.00
2023-05-21T15:05:13.678Z,2.03
2023-05-21T15:07:42.177Z,2.05
2023-05-21T15:10:11.531Z,1.95
2023-05-21T15:12:42.003Z,2.10
2023-05-21T15:15:10.931Z,2.30
2023-05-21T15:17:39.646Z,1.70
2023-05-21T15:20:09.465Z,1.95
2023-05-21T15:22:38.414Z,1.88
2023-05-21T15:25:07.592Z,2.03
2023-05-21T15:27:36.376Z,1.65
2023-05-21T15:30:07.022Z,1.90
2023-05-21T15:32:35.679Z,2.00
2023-05-21T15:35:04.346Z,2.03
2023-05-21T15:37:33.188Z,2.00
2023-05-21T15:40:02.089Z,1.95
2023-05-21T15:42:31.889Z,1.90
2023-05-21T15:45:00.666Z,1.80
2023-05-21T15:47:30.703Z,2.00
2023-05-21T15:50:00.433Z,1.80
2023-05-21T15:52:29.225Z,1.75
2023-05-21T15:54:57.907Z,1.80
2023-05-21T15:57:26.397Z,1.90
2023-05-21T15:59:54.985Z,1.92
2023-05-21T16:02:23.732Z,2.00
2023-05-21T16:04:53.688Z,1.77
2023-05-21T16:07:22.190Z,1.98
2023-05-21T16:09:51.021Z,1.85
2023-05-21T16:12:19.633Z,1.73
2023-05-21T16:14:49.929Z,1.80
2023-05-21T16:17:19.673Z,2.00
2023-05-21T16:19:48.409Z,1.88
2023-05-21T16:22:20.487Z,1.67
2023-05-21T16:24:49.093Z,2.00
2023-05-21T16:27:17.609Z,1.92
2023-05-21T16:29:46.389Z,1.60
2023-05-21T16:32:15.130Z,2.00
2023-05-21T16:34:43.701Z,2.00
2023-05-21T16:37:12.359Z,2.08
2023-05-21T16:39:42.418Z,1.88
2023-05-21T16:42:10.984Z,1.88
2023-05-21T16:44:39.670Z,2.03
2023-05-21T16:47:08.340Z,1.85
2023-05-21T16:49:37.094Z,1.85
2023-05-21T16:52:05.852Z,1.90
2023-05-21T16:54:34.811Z,1.95
2023-05-21T16:57:04.889Z,1.85
2023-05-21T16:59:33.473Z,1.80
2023-05-21T17:02:02.118Z,1.88
2023-05-21T17:04:30.862Z,1.65
2023-05-21T17:06:59.491Z,1.70
2023-05-21T17:09:27.987Z,1.92
2023-05-21T17:11:56.568Z,1.75
2023-05-21T17:14:34.340Z,2.00
2023-05-21T17:17:04.019Z,1.80
2023-05-21T17:19:32.732Z,1.92
2023-05-21T17:22:01.312Z,1.90
2023-05-21T17:24:29.911Z,2.00
2023-05-21T17:26:58.592Z,1.70
2023-05-21T17:29:28.632Z,1.85
2023-05-21T17:31:57.382Z,1.90
2023-05-21T17:34:29.477Z,1.63
2023-05-21T17:36:59.021Z,1.92
2023-05-21T17:39:27.628Z,1.70
2023-05-21T17:41:57.436Z,1.65
2023-05-21T17:44:26.093Z,1.80
2023-05-21T17:46:57.683Z,1.65
2023-05-21T17:49:26.449Z,1.77
2023-05-21T17:51:55.126Z,1.60
2023-05-21T17:54:23.740Z,1.77
2023-05-21T17:56:52.351Z,1.70
2023-05-21T17:59:21.296Z,1.70
2023-05-21T18:01:49.810Z,1.50
2023-05-21T18:04:20.123Z,1.80
2023-05-21T18:06:48.807Z,1.50
2023-05-21T18:09:17.361Z,1.67
2023-05-21T18:11:46.165Z,2.03
2023-05-21T18:14:14.896Z,1.65
2023-05-21T18:16:43.480Z,1.45
2023-05-21T18:19:12.247Z,1.63
2023-05-21T18:21:42.380Z,1.50
2023-05-21T18:24:10.991Z,1.60
2023-05-21T18:26:39.611Z,1.60
2023-05-21T18:29:10.841Z,1.50
2023-05-21T18:31:39.578Z,1.73
2023-05-21T18:34:08.219Z,1.50
2023-05-21T18:36:38.892Z,1.45
2023-05-21T18:39:09.599Z,1.83
2023-05-21T18:41:38.262Z,1.65
2023-05-21T18:44:07.137Z,1.55
2023-05-21T18:46:36.308Z,1.40
2023-05-21T18:49:04.901Z,1.65
2023-05-21T18:51:33.452Z,1.50
2023-05-21T18:54:02.199Z,1.60
2023-05-21T18:56:32.092Z,1.50
2023-05-21T18:59:00.670Z,1.60
2023-05-21T19:01:29.651Z,1.40
2023-05-21T19:03:58.360Z,1.70
2023-05-21T19:06:27.833Z,1.60
2023-05-21T19:08:56.808Z,1.60
2023-05-21T19:11:27.648Z,1.70
2023-05-21T19:13:57.634Z,1.60
2023-05-21T19:16:26.287Z,1.80
2023-05-21T19:18:54.906Z,1.57
2023-05-21T19:21:25.392Z,1.50
2023-05-21T19:23:54.153Z,1.50
2023-05-21T19:26:23.423Z,1.50
2023-05-21T19:28:53.834Z,1.40
2023-05-21T19:31:25.386Z,1.50
2023-05-21T19:33:54.462Z,1.40
2023-05-21T19:36:23.070Z,1.50
2023-05-21T19:38:52.229Z,1.37
2023-05-21T19:41:22.179Z,1.27
2023-05-21T19:43:51.117Z,1.30
2023-05-21T19:46:20.680Z,1.40
2023-05-21T19:48:51.169Z,1.20
2023-05-21T19:51:19.749Z,1.40
2023-05-21T19:53:48.325Z,1.10
2023-05-21T19:56:16.989Z,1.30
2023-05-21T19:58:47.306Z,1.73
2023-05-21T20:01:16.112Z,1.30
2023-05-21T20:03:45.775Z,1.50
2023-05-21T20:06:19.087Z,1.07
2023-05-21T20:08:48.220Z,1.17
2023-05-21T20:11:16.834Z,1.60
2023-05-21T20:13:50.186Z,1.10
2023-05-21T20:16:20.115Z,1.30
2023-05-21T20:18:49.146Z,1.00
2023-05-21T20:21:20.174Z,1.30
2023-05-21T20:23:49.161Z,1.20
2023-05-21T20:26:18.962Z,1.23
2023-05-21T20:28:47.704Z,1.20
2023-05-21T20:31:16.481Z,1.50
2023-05-21T20:33:45.136Z,1.30
2023-05-21T20:36:15.479Z,1.20
2023-05-21T20:38:45.771Z,1.40
2023-05-21T20:41:15.094Z,1.50
2023-05-21T20:43:46.102Z,1.27
2023-05-21T20:46:18.198Z,1.50
2023-05-21T20:48:47.494Z,1.20
2023-05-21T20:51:16.021Z,1.37
2023-05-21T20:53:45.966Z,1.30
2023-05-21T20:56:16.986Z,1.30
2023-05-21T20:58:48.419Z,1.37
2023-05-21T21:01:17.880Z,1.20
2023-05-21T21:03:46.952Z,1.43
2023-05-21T21:06:15.565Z,1.40
2023-05-21T21:08:46.438Z,1.43
2023-05-21T21:11:16.492Z,1.63
2023-05-21T21:13:45.209Z,1.20
2023-05-21T21:16:14.240Z,1.43
2023-05-21T21:18:42.763Z,1.40
2023-05-21T21:21:11.649Z,1.40
2023-05-21T21:23:40.392Z,1.30
2023-05-21T21:26:08.965Z,1.40
2023-05-21T21:28:38.934Z,1.43
2023-05-21T21:31:07.595Z,1.57
2023-05-21T21:33:36.188Z,1.60
2023-05-21T21:36:04.900Z,1.50
2023-05-21T21:38:33.511Z,1.47
2023-05-21T21:41:02.054Z,1.27
2023-05-21T21:43:30.756Z,1.40
2023-05-21T21:46:00.935Z,1.30
2023-05-21T21:48:29.506Z,1.30
2023-05-21T21:50:58.137Z,1.43
2023-05-21T21:53:26.700Z,1.30
2023-05-21T21:55:56.941Z,1.30
2023-05-21T21:58:25.524Z,1.50
2023-05-21T22:00:54.850Z,1.37
2023-05-21T22:03:24.810Z,2.23
2023-05-21T22:05:54.180Z,1.40
2023-05-21T22:08:22.810Z,1.60
2023-05-21T22:10:51.342Z,1.70
2023-05-21T22:13:19.992Z,1.50
2023-05-21T22:15:49.252Z,1.60
2023-05-21T22:18:28.343Z,1.23
2023-05-21T22:21:02.216Z,1.30
2023-05-21T22:23:30.723Z,1.50
2023-05-21T22:25:59.218Z,1.70
2023-05-21T22:28:27.935Z,1.37
2023-05-21T22:30:56.524Z,1.70
2023-05-21T22:33:25.171Z,1.20
2023-05-21T22:35:54.611Z,1.50
2023-05-21T22:38:24.609Z,1.30
2023-05-21T22:40:53.143Z,1.40
2023-05-21T22:43:21.903Z,1.50
2023-05-21T22:45:50.417Z,1.50
2023-05-21T22:48:21.993Z,1.30
2023-05-21T22:50:53.597Z,1.50
2023-05-21T22:53:23.395Z,1.20
2023-05-21T22:55:53.526Z,1.60
2023-05-21T22:58:22.119Z,1.60
2023-05-21T23:00:51.184Z,1.30
2023-05-21T23:03:19.702Z,1.60
2023-05-21T23:05:48.347Z,1.60
2023-05-21T23:08:16.976Z,1.33
2023-05-21T23:10:45.482Z,1.50
2023-05-21T23:13:15.520Z,1.50
2023-05-21T23:15:44.262Z,1.70
2023-05-21T23:18:12.993Z,1.73
2023-05-21T23:20:42.246Z,1.50
2023-05-21T23:23:11.195Z,1.43
2023-05-21T23:25:39.707Z,1.40
2023-05-21T23:28:08.322Z,1.57
2023-05-21T23:30:38.652Z,1.73
2023-05-21T23:33:07.523Z,1.50
2023-05-21T23:35:36.145Z,1.53
2023-05-21T23:38:04.677Z,1.53
2023-05-21T23:40:33.354Z,1.67
2023-05-21T23:43:01.994Z,1.47
2023-05-21T23:45:30.786Z,1.50
2023-05-21T23:48:00.938Z,1.23
2023-05-21T23:50:29.808Z,1.87
2023-05-21T23:52:58.437Z,1.57
2023-05-21T23:55:27.104Z,1.50
2023-05-21T23:57:55.843Z,1.60
